sensor_id;sensor_type;location;lat;lon;timestamp;temperature;humidity
15121;DHT22;7661;48.904;9.414;2022-09-09T00:01:53;14.70;99.90
15121;DHT22;7661;48.904;9.414;2022-09-09T00:04:26;14.70;99.90
15121;DHT22;7661;48.904;9.414;2022-09-09T00:07:03;14.70;99.90
15121;DHT22;7661;48.904;9.414;2022-09-09T00:09:39;14.60;99.90
15121;DHT22;7661;48.904;9.414;2022-09-09T00:12:11;14.60;99.90
15121;DHT22;7661;48.904;9.414;2022-09-09T00:14:45;14.70;99.90
15121;DHT22;7661;48.904;9.414;2022-09-09T00:17:22;14.70;99.90
15121;DHT22;7661;48.904;9.414;2022-09-09T00:19:56;14.70;99.90
15121;DHT22;7661;48.904;9.414;2022-09-09T00:22:28;14.70;99.90
15121;DHT22;7661;48.904;9.414;2022-09-09T00:25:04;14.60;99.90
15121;DHT22;7661;48.904;9.414;2022-09-09T00:27:40;14.60;99.90
15121;DHT22;7661;48.904;9.414;2022-09-09T00:30:16;14.60;99.90
15121;DHT22;7661;48.904;9.414;2022-09-09T00:32:45;14.60;99.90
15121;DHT22;7661;48.904;9.414;2022-09-09T00:35:17;14.60;99.90
15121;DHT22;7661;48.904;9.414;2022-09-09T00:37:46;14.50;99.90
15121;DHT22;7661;48.904;9.414;2022-09-09T00:40:23;14.50;99.90
15121;DHT22;7661;48.904;9.414;2022-09-09T00:43:00;14.50;99.90
15121;DHT22;7661;48.904;9.414;2022-09-09T00:45:54;14.50;99.90
15121;DHT22;7661;48.904;9.414;2022-09-09T00:48:31;14.50;99.90
15121;DHT22;7661;48.904;9.414;2022-09-09T00:51:08;14.40;99.90
15121;DHT22;7661;48.904;9.414;2022-09-09T00:53:41;14.40;99.90
15121;DHT22;7661;48.904;9.414;2022-09-09T00:56:13;14.40;99.90
15121;DHT22;7661;48.904;9.414;2022-09-09T00:58:42;14.50;99.90
15121;DHT22;7661;48.904;9.414;2022-09-09T01:01:13;14.50;99.90
15121;DHT22;7661;48.904;9.414;2022-09-09T01:03:45;14.60;99.90
15121;DHT22;7661;48.904;9.414;2022-09-09T01:06:22;14.60;99.90
15121;DHT22;7661;48.904;9.414;2022-09-09T01:09:05;14.60;99.90
15121;DHT22;7661;48.904;9.414;2022-09-09T01:11:42;14.60;99.90
15121;DHT22;7661;48.904;9.414;2022-09-09T01:14:20;14.60;99.90
15121;DHT22;7661;48.904;9.414;2022-09-09T01:16:52;14.70;99.90
15121;DHT22;7661;48.904;9.414;2022-09-09T01:19:35;14.70;99.90
15121;DHT22;7661;48.904;9.414;2022-09-09T01:22:12;14.70;99.90
15121;DHT22;7661;48.904;9.414;2022-09-09T01:24:52;14.70;99.90
15121;DHT22;7661;48.904;9.414;2022-09-09T01:27:23;14.70;99.90
15121;DHT22;7661;48.904;9.414;2022-09-09T01:29:50;14.80;99.90
15121;DHT22;7661;48.904;9.414;2022-09-09T01:32:40;14.80;99.90
15121;DHT22;7661;48.904;9.414;2022-09-09T01:35:10;14.80;99.90
15121;DHT22;7661;48.904;9.414;2022-09-09T01:37:38;14.80;99.90
15121;DHT22;7661;48.904;9.414;2022-09-09T01:40:06;14.80;99.90
15121;DHT22;7661;48.904;9.414;2022-09-09T01:42:34;14.80;99.90
15121;DHT22;7661;48.904;9.414;2022-09-09T01:45:02;14.80;99.90
15121;DHT22;7661;48.904;9.414;2022-09-09T01:47:29;14.80;99.90
15121;DHT22;7661;48.904;9.414;2022-09-09T01:49:56;14.80;99.90
15121;DHT22;7661;48.904;9.414;2022-09-09T01:52:23;14.80;99.90
15121;DHT22;7661;48.904;9.414;2022-09-09T01:54:50;14.90;99.90
15121;DHT22;7661;48.904;9.414;2022-09-09T01:57:21;15.00;99.90
15121;DHT22;7661;48.904;9.414;2022-09-09T02:00:00;15.10;99.90
15121;DHT22;7661;48.904;9.414;2022-09-09T02:02:33;15.20;99.90
15121;DHT22;7661;48.904;9.414;2022-09-09T02:05:11;15.40;99.90
15121;DHT22;7661;48.904;9.414;2022-09-09T02:07:40;15.50;99.90
15121;DHT22;7661;48.904;9.414;2022-09-09T02:10:12;15.70;99.90
15121;DHT22;7661;48.904;9.414;2022-09-09T02:12:46;15.70;99.90
15121;DHT22;7661;48.904;9.414;2022-09-09T02:15:19;15.80;99.90
15121;DHT22;7661;48.904;9.414;2022-09-09T02:17:50;15.80;99.90
15121;DHT22;7661;48.904;9.414;2022-09-09T02:20:20;15.80;99.90
15121;DHT22;7661;48.904;9.414;2022-09-09T02:22:49;15.80;99.90
15121;DHT22;7661;48.904;9.414;2022-09-09T02:25:19;15.70;99.90
15121;DHT22;7661;48.904;9.414;2022-09-09T02:27:48;15.60;99.90
15121;DHT22;7661;48.904;9.414;2022-09-09T02:30:17;15.50;99.90
15121;DHT22;7661;48.904;9.414;2022-09-09T02:32:47;15.40;99.90
15121;DHT22;7661;48.904;9.414;2022-09-09T02:35:17;15.30;99.90
15121;DHT22;7661;48.904;9.414;2022-09-09T02:37:46;15.20;99.90
15121;DHT22;7661;48.904;9.414;2022-09-09T02:40:14;15.10;99.90
15121;DHT22;7661;48.904;9.414;2022-09-09T02:42:42;15.10;99.90
15121;DHT22;7661;48.904;9.414;2022-09-09T02:45:11;15.00;99.90
15121;DHT22;7661;48.904;9.414;2022-09-09T02:47:47;14.80;99.90
15121;DHT22;7661;48.904;9.414;2022-09-09T02:50:19;14.80;99.90
15121;DHT22;7661;48.904;9.414;2022-09-09T02:52:59;14.70;99.90
15121;DHT22;7661;48.904;9.414;2022-09-09T02:55:36;14.60;99.90
15121;DHT22;7661;48.904;9.414;2022-09-09T02:58:05;14.60;99.90
15121;DHT22;7661;48.904;9.414;2022-09-09T03:00:34;14.60;99.90
15121;DHT22;7661;48.904;9.414;2022-09-09T03:03:03;14.50;99.90
15121;DHT22;7661;48.904;9.414;2022-09-09T03:05:30;14.50;99.90
15121;DHT22;7661;48.904;9.414;2022-09-09T03:07:58;14.40;99.90
15121;DHT22;7661;48.904;9.414;2022-09-09T03:10:25;14.40;99.90
15121;DHT22;7661;48.904;9.414;2022-09-09T03:12:51;14.40;99.90
15121;DHT22;7661;48.904;9.414;2022-09-09T03:15:18;14.30;99.90
15121;DHT22;7661;48.904;9.414;2022-09-09T03:17:46;14.30;99.90
15121;DHT22;7661;48.904;9.414;2022-09-09T03:20:14;14.30;99.90
15121;DHT22;7661;48.904;9.414;2022-09-09T03:22:41;14.40;99.90
15121;DHT22;7661;48.904;9.414;2022-09-09T03:25:09;14.50;99.90
15121;DHT22;7661;48.904;9.414;2022-09-09T03:27:36;14.60;99.90
15121;DHT22;7661;48.904;9.414;2022-09-09T03:30:03;14.60;99.90
15121;DHT22;7661;48.904;9.414;2022-09-09T03:32:30;14.60;99.90
15121;DHT22;7661;48.904;9.414;2022-09-09T03:34:57;14.60;99.90
15121;DHT22;7661;48.904;9.414;2022-09-09T03:37:26;14.60;99.90
15121;DHT22;7661;48.904;9.414;2022-09-09T03:39:53;14.70;99.90
15121;DHT22;7661;48.904;9.414;2022-09-09T03:42:21;14.70;99.90
15121;DHT22;7661;48.904;9.414;2022-09-09T03:44:48;14.60;99.90
15121;DHT22;7661;48.904;9.414;2022-09-09T03:47:17;14.60;99.90
15121;DHT22;7661;48.904;9.414;2022-09-09T03:49:44;14.60;99.90
15121;DHT22;7661;48.904;9.414;2022-09-09T03:52:11;14.60;99.90
15121;DHT22;7661;48.904;9.414;2022-09-09T03:54:39;14.60;99.90
15121;DHT22;7661;48.904;9.414;2022-09-09T03:57:08;14.60;99.90
15121;DHT22;7661;48.904;9.414;2022-09-09T03:59:34;14.60;99.90
15121;DHT22;7661;48.904;9.414;2022-09-09T04:02:01;14.60;99.90
15121;DHT22;7661;48.904;9.414;2022-09-09T04:04:28;14.60;99.90
15121;DHT22;7661;48.904;9.414;2022-09-09T04:06:55;14.50;99.90
15121;DHT22;7661;48.904;9.414;2022-09-09T04:09:22;14.50;99.90
15121;DHT22;7661;48.904;9.414;2022-09-09T04:11:50;14.50;99.90
15121;DHT22;7661;48.904;9.414;2022-09-09T04:14:18;14.40;99.90
15121;DHT22;7661;48.904;9.414;2022-09-09T04:16:45;14.40;99.90
15121;DHT22;7661;48.904;9.414;2022-09-09T04:19:13;14.40;99.90
15121;DHT22;7661;48.904;9.414;2022-09-09T04:21:40;14.30;99.90
15121;DHT22;7661;48.904;9.414;2022-09-09T04:24:07;14.30;99.90
15121;DHT22;7661;48.904;9.414;2022-09-09T04:26:35;14.30;99.90
15121;DHT22;7661;48.904;9.414;2022-09-09T04:29:04;14.20;99.90
15121;DHT22;7661;48.904;9.414;2022-09-09T04:31:32;14.30;99.90
15121;DHT22;7661;48.904;9.414;2022-09-09T04:33:59;14.40;99.90
15121;DHT22;7661;48.904;9.414;2022-09-09T04:36:31;14.60;99.90
15121;DHT22;7661;48.904;9.414;2022-09-09T04:38:58;14.60;99.90
15121;DHT22;7661;48.904;9.414;2022-09-09T04:41:26;14.70;99.90
15121;DHT22;7661;48.904;9.414;2022-09-09T04:43:53;14.70;99.90
15121;DHT22;7661;48.904;9.414;2022-09-09T04:46:22;14.60;99.90
15121;DHT22;7661;48.904;9.414;2022-09-09T04:48:49;14.70;99.90
15121;DHT22;7661;48.904;9.414;2022-09-09T04:51:18;14.80;99.90
15121;DHT22;7661;48.904;9.414;2022-09-09T04:53:45;14.80;99.90
15121;DHT22;7661;48.904;9.414;2022-09-09T04:56:13;14.80;99.90
15121;DHT22;7661;48.904;9.414;2022-09-09T04:58:41;14.80;99.90
15121;DHT22;7661;48.904;9.414;2022-09-09T05:01:09;14.90;99.90
15121;DHT22;7661;48.904;9.414;2022-09-09T05:03:38;14.90;99.90
15121;DHT22;7661;48.904;9.414;2022-09-09T05:06:06;14.90;99.90
15121;DHT22;7661;48.904;9.414;2022-09-09T05:08:34;15.00;99.90
15121;DHT22;7661;48.904;9.414;2022-09-09T05:11:01;15.10;99.90
15121;DHT22;7661;48.904;9.414;2022-09-09T05:13:28;15.00;99.90
15121;DHT22;7661;48.904;9.414;2022-09-09T05:15:56;15.00;99.90
15121;DHT22;7661;48.904;9.414;2022-09-09T05:18:23;15.00;99.90
15121;DHT22;7661;48.904;9.414;2022-09-09T05:20:51;15.00;99.90
15121;DHT22;7661;48.904;9.414;2022-09-09T05:23:19;15.00;99.90
15121;DHT22;7661;48.904;9.414;2022-09-09T05:25:55;15.00;99.90
15121;DHT22;7661;48.904;9.414;2022-09-09T05:28:23;15.20;99.90
15121;DHT22;7661;48.904;9.414;2022-09-09T05:30:56;15.20;99.90
15121;DHT22;7661;48.904;9.414;2022-09-09T05:33:24;15.30;99.90
15121;DHT22;7661;48.904;9.414;2022-09-09T05:35:57;15.30;99.90
15121;DHT22;7661;48.904;9.414;2022-09-09T05:38:24;15.40;99.90
15121;DHT22;7661;48.904;9.414;2022-09-09T05:40:51;15.50;99.90
15121;DHT22;7661;48.904;9.414;2022-09-09T05:43:18;15.50;99.90
15121;DHT22;7661;48.904;9.414;2022-09-09T05:45:46;15.50;99.90
15121;DHT22;7661;48.904;9.414;2022-09-09T05:48:13;15.50;99.90
15121;DHT22;7661;48.904;9.414;2022-09-09T05:50:41;15.70;99.90
15121;DHT22;7661;48.904;9.414;2022-09-09T05:53:09;15.70;99.90
15121;DHT22;7661;48.904;9.414;2022-09-09T05:55:36;15.80;99.90
15121;DHT22;7661;48.904;9.414;2022-09-09T05:58:03;15.80;99.90
15121;DHT22;7661;48.904;9.414;2022-09-09T06:00:30;15.80;99.90
15121;DHT22;7661;48.904;9.414;2022-09-09T06:02:58;15.90;99.90
15121;DHT22;7661;48.904;9.414;2022-09-09T06:05:25;16.00;99.90
15121;DHT22;7661;48.904;9.414;2022-09-09T06:07:54;16.00;99.90
15121;DHT22;7661;48.904;9.414;2022-09-09T06:10:22;16.10;99.90
15121;DHT22;7661;48.904;9.414;2022-09-09T06:12:52;16.30;99.90
15121;DHT22;7661;48.904;9.414;2022-09-09T06:15:20;16.30;99.90
15121;DHT22;7661;48.904;9.414;2022-09-09T06:17:46;16.30;99.90
15121;DHT22;7661;48.904;9.414;2022-09-09T06:20:15;16.40;99.90
15121;DHT22;7661;48.904;9.414;2022-09-09T06:22:41;16.40;99.90
15121;DHT22;7661;48.904;9.414;2022-09-09T06:25:09;16.50;99.90
15121;DHT22;7661;48.904;9.414;2022-09-09T06:27:37;16.60;99.90
15121;DHT22;7661;48.904;9.414;2022-09-09T06:30:05;16.70;99.90
15121;DHT22;7661;48.904;9.414;2022-09-09T06:32:33;16.80;99.90
15121;DHT22;7661;48.904;9.414;2022-09-09T06:35:02;16.80;99.90
15121;DHT22;7661;48.904;9.414;2022-09-09T06:37:29;16.90;99.90
15121;DHT22;7661;48.904;9.414;2022-09-09T06:39:56;17.00;99.90
15121;DHT22;7661;48.904;9.414;2022-09-09T06:42:23;17.00;99.90
15121;DHT22;7661;48.904;9.414;2022-09-09T06:44:51;17.00;99.90
15121;DHT22;7661;48.904;9.414;2022-09-09T06:47:18;17.00;99.90
15121;DHT22;7661;48.904;9.414;2022-09-09T06:49:45;17.10;99.90
15121;DHT22;7661;48.904;9.414;2022-09-09T06:52:12;17.00;99.90
15121;DHT22;7661;48.904;9.414;2022-09-09T06:54:39;17.10;99.90
15121;DHT22;7661;48.904;9.414;2022-09-09T06:57:06;17.10;99.90
15121;DHT22;7661;48.904;9.414;2022-09-09T06:59:33;17.20;99.90
15121;DHT22;7661;48.904;9.414;2022-09-09T07:02:01;17.30;99.90
15121;DHT22;7661;48.904;9.414;2022-09-09T07:04:28;17.30;99.90
15121;DHT22;7661;48.904;9.414;2022-09-09T07:06:55;17.30;99.90
15121;DHT22;7661;48.904;9.414;2022-09-09T07:09:22;17.40;99.90
15121;DHT22;7661;48.904;9.414;2022-09-09T07:11:51;17.40;99.90
15121;DHT22;7661;48.904;9.414;2022-09-09T07:14:18;17.50;99.90
15121;DHT22;7661;48.904;9.414;2022-09-09T07:16:46;17.60;99.90
15121;DHT22;7661;48.904;9.414;2022-09-09T07:19:14;17.70;99.90
15121;DHT22;7661;48.904;9.414;2022-09-09T07:21:42;17.70;99.90
15121;DHT22;7661;48.904;9.414;2022-09-09T07:24:09;17.80;99.90
15121;DHT22;7661;48.904;9.414;2022-09-09T07:26:38;17.90;99.90
15121;DHT22;7661;48.904;9.414;2022-09-09T07:29:06;18.00;99.90
15121;DHT22;7661;48.904;9.414;2022-09-09T07:31:34;18.10;99.90
15121;DHT22;7661;48.904;9.414;2022-09-09T07:34:02;18.10;99.90
15121;DHT22;7661;48.904;9.414;2022-09-09T07:36:32;18.10;99.90
15121;DHT22;7661;48.904;9.414;2022-09-09T07:39:00;18.10;99.90
15121;DHT22;7661;48.904;9.414;2022-09-09T07:41:30;18.30;99.90
15121;DHT22;7661;48.904;9.414;2022-09-09T07:43:58;18.40;99.90
15121;DHT22;7661;48.904;9.414;2022-09-09T07:46:26;18.50;99.90
15121;DHT22;7661;48.904;9.414;2022-09-09T07:48:55;18.70;99.90
15121;DHT22;7661;48.904;9.414;2022-09-09T07:51:25;18.80;99.90
15121;DHT22;7661;48.904;9.414;2022-09-09T07:53:56;18.80;99.90
15121;DHT22;7661;48.904;9.414;2022-09-09T07:56:25;18.80;99.90
15121;DHT22;7661;48.904;9.414;2022-09-09T07:58:54;18.80;99.90
15121;DHT22;7661;48.904;9.414;2022-09-09T08:01:24;18.80;99.90
15121;DHT22;7661;48.904;9.414;2022-09-09T08:03:54;18.90;99.90
15121;DHT22;7661;48.904;9.414;2022-09-09T08:06:21;18.90;99.90
15121;DHT22;7661;48.904;9.414;2022-09-09T08:08:51;19.00;99.90
15121;DHT22;7661;48.904;9.414;2022-09-09T08:11:19;19.20;99.90
15121;DHT22;7661;48.904;9.414;2022-09-09T08:13:49;19.30;99.90
15121;DHT22;7661;48.904;9.414;2022-09-09T08:16:18;19.30;99.90
15121;DHT22;7661;48.904;9.414;2022-09-09T08:18:47;19.40;99.90
15121;DHT22;7661;48.904;9.414;2022-09-09T08:21:17;19.70;99.90
15121;DHT22;7661;48.904;9.414;2022-09-09T08:23:45;20.50;99.90
15121;DHT22;7661;48.904;9.414;2022-09-09T08:26:14;21.00;99.90
15121;DHT22;7661;48.904;9.414;2022-09-09T08:28:43;21.50;99.90
15121;DHT22;7661;48.904;9.414;2022-09-09T08:31:12;21.60;99.90
15121;DHT22;7661;48.904;9.414;2022-09-09T08:33:40;21.70;99.90
15121;DHT22;7661;48.904;9.414;2022-09-09T08:36:09;22.00;99.90
15121;DHT22;7661;48.904;9.414;2022-09-09T08:38:37;22.20;99.90
15121;DHT22;7661;48.904;9.414;2022-09-09T08:44:12;22.90;99.90
15121;DHT22;7661;48.904;9.414;2022-09-09T08:46:48;23.20;99.90
15121;DHT22;7661;48.904;9.414;2022-09-09T08:49:44;23.30;99.90
15121;DHT22;7661;48.904;9.414;2022-09-09T08:52:19;23.60;99.90
15121;DHT22;7661;48.904;9.414;2022-09-09T08:54:48;24.10;99.90
15121;DHT22;7661;48.904;9.414;2022-09-09T08:57:21;24.40;99.90
15121;DHT22;7661;48.904;9.414;2022-09-09T08:59:54;24.40;99.90
15121;DHT22;7661;48.904;9.414;2022-09-09T09:02:26;23.80;99.90
15121;DHT22;7661;48.904;9.414;2022-09-09T09:05:08;23.20;99.90
15121;DHT22;7661;48.904;9.414;2022-09-09T09:07:47;23.00;99.90
15121;DHT22;7661;48.904;9.414;2022-09-09T09:10:29;23.40;99.90
15121;DHT22;7661;48.904;9.414;2022-09-09T09:12:58;24.10;99.90
15121;DHT22;7661;48.904;9.414;2022-09-09T09:15:30;24.70;99.90
15121;DHT22;7661;48.904;9.414;2022-09-09T09:17:57;25.10;99.90
15121;DHT22;7661;48.904;9.414;2022-09-09T09:20:38;25.20;99.90
15121;DHT22;7661;48.904;9.414;2022-09-09T09:23:14;25.50;99.90
15121;DHT22;7661;48.904;9.414;2022-09-09T09:25:45;25.20;99.90
15121;DHT22;7661;48.904;9.414;2022-09-09T09:28:15;25.50;99.90
15121;DHT22;7661;48.904;9.414;2022-09-09T09:30:49;25.60;99.90
15121;DHT22;7661;48.904;9.414;2022-09-09T09:33:23;26.00;99.90
15121;DHT22;7661;48.904;9.414;2022-09-09T09:35:51;26.00;99.80
15121;DHT22;7661;48.904;9.414;2022-09-09T09:38:21;26.00;99.90
15121;DHT22;7661;48.904;9.414;2022-09-09T09:40:50;26.10;99.50
15121;DHT22;7661;48.904;9.414;2022-09-09T09:43:24;26.10;99.10
15121;DHT22;7661;48.904;9.414;2022-09-09T09:45:54;25.50;99.80
15121;DHT22;7661;48.904;9.414;2022-09-09T09:48:24;24.70;99.90
15121;DHT22;7661;48.904;9.414;2022-09-09T09:50:52;23.80;99.90
15121;DHT22;7661;48.904;9.414;2022-09-09T09:53:23;23.30;99.90
15121;DHT22;7661;48.904;9.414;2022-09-09T09:55:56;22.90;99.90
15121;DHT22;7661;48.904;9.414;2022-09-09T09:58:25;22.50;99.90
15121;DHT22;7661;48.904;9.414;2022-09-09T10:00:54;22.30;99.90
15121;DHT22;7661;48.904;9.414;2022-09-09T10:03:24;22.00;99.90
15121;DHT22;7661;48.904;9.414;2022-09-09T10:05:52;21.90;99.90
15121;DHT22;7661;48.904;9.414;2022-09-09T10:08:20;21.80;99.90
15121;DHT22;7661;48.904;9.414;2022-09-09T10:10:57;21.90;99.90
15121;DHT22;7661;48.904;9.414;2022-09-09T10:13:30;22.70;99.90
15121;DHT22;7661;48.904;9.414;2022-09-09T10:16:24;23.70;99.90
15121;DHT22;7661;48.904;9.414;2022-09-09T10:18:59;24.30;99.90
15121;DHT22;7661;48.904;9.414;2022-09-09T10:22:00;24.50;95.80
15121;DHT22;7661;48.904;9.414;2022-09-09T10:27:26;25.20;94.10
15121;DHT22;7661;48.904;9.414;2022-09-09T10:30:06;25.70;91.40
15121;DHT22;7661;48.904;9.414;2022-09-09T10:32:41;26.00;87.10
15121;DHT22;7661;48.904;9.414;2022-09-09T10:35:12;26.10;90.00
15121;DHT22;7661;48.904;9.414;2022-09-09T10:37:51;26.70;88.10
15121;DHT22;7661;48.904;9.414;2022-09-09T10:40:28;26.70;84.60
15121;DHT22;7661;48.904;9.414;2022-09-09T10:43:04;26.80;84.20
15121;DHT22;7661;48.904;9.414;2022-09-09T10:45:44;27.30;82.90
15121;DHT22;7661;48.904;9.414;2022-09-09T10:48:30;27.90;81.50
15121;DHT22;7661;48.904;9.414;2022-09-09T10:51:18;28.00;80.60
15121;DHT22;7661;48.904;9.414;2022-09-09T10:53:57;28.30;78.60
15121;DHT22;7661;48.904;9.414;2022-09-09T10:56:26;26.90;81.60
15121;DHT22;7661;48.904;9.414;2022-09-09T10:58:58;26.70;83.70
15121;DHT22;7661;48.904;9.414;2022-09-09T11:01:39;27.70;82.80
15121;DHT22;7661;48.904;9.414;2022-09-09T11:04:15;28.50;79.50
15121;DHT22;7661;48.904;9.414;2022-09-09T11:06:49;28.60;79.40
15121;DHT22;7661;48.904;9.414;2022-09-09T11:09:21;28.80;78.90
15121;DHT22;7661;48.904;9.414;2022-09-09T11:11:52;27.90;81.10
15121;DHT22;7661;48.904;9.414;2022-09-09T11:14:22;26.90;82.70
15121;DHT22;7661;48.904;9.414;2022-09-09T11:16:55;26.10;84.30
15121;DHT22;7661;48.904;9.414;2022-09-09T11:19:28;25.90;85.10
15121;DHT22;7661;48.904;9.414;2022-09-09T11:22:00;25.50;86.10
15121;DHT22;7661;48.904;9.414;2022-09-09T11:24:33;25.30;85.50
15121;DHT22;7661;48.904;9.414;2022-09-09T11:27:07;25.00;84.80
15121;DHT22;7661;48.904;9.414;2022-09-09T11:30:13;24.60;87.10
15121;DHT22;7661;48.904;9.414;2022-09-09T11:33:23;24.70;89.60
15121;DHT22;7661;48.904;9.414;2022-09-09T11:36:13;24.40;90.40
15121;DHT22;7661;48.904;9.414;2022-09-09T11:38:45;24.50;91.20
15121;DHT22;7661;48.904;9.414;2022-09-09T11:41:14;24.70;91.40
15121;DHT22;7661;48.904;9.414;2022-09-09T11:43:43;24.50;92.30
15121;DHT22;7661;48.904;9.414;2022-09-09T11:46:13;24.00;93.60
15121;DHT22;7661;48.904;9.414;2022-09-09T11:48:42;23.30;95.40
15121;DHT22;7661;48.904;9.414;2022-09-09T11:51:24;22.20;98.10
15121;DHT22;7661;48.904;9.414;2022-09-09T11:53:53;21.50;99.90
15121;DHT22;7661;48.904;9.414;2022-09-09T11:56:28;20.90;99.90
15121;DHT22;7661;48.904;9.414;2022-09-09T11:58:59;20.60;99.90
15121;DHT22;7661;48.904;9.414;2022-09-09T12:01:38;20.50;99.90
15121;DHT22;7661;48.904;9.414;2022-09-09T12:04:28;20.50;99.90
15121;DHT22;7661;48.904;9.414;2022-09-09T12:07:00;20.60;99.90
15121;DHT22;7661;48.904;9.414;2022-09-09T12:09:43;20.60;99.90
15121;DHT22;7661;48.904;9.414;2022-09-09T12:12:27;20.60;99.90
15121;DHT22;7661;48.904;9.414;2022-09-09T12:17:48;21.10;99.90
15121;DHT22;7661;48.904;9.414;2022-09-09T12:20:19;21.70;99.90
15121;DHT22;7661;48.904;9.414;2022-09-09T12:25:59;25.10;99.90
15121;DHT22;7661;48.904;9.414;2022-09-09T12:28:43;27.20;99.90
15121;DHT22;7661;48.904;9.414;2022-09-09T12:31:15;28.90;99.90
15121;DHT22;7661;48.904;9.414;2022-09-09T12:33:45;29.40;96.10
15121;DHT22;7661;48.904;9.414;2022-09-09T12:36:16;29.20;94.00
15121;DHT22;7661;48.904;9.414;2022-09-09T12:38:47;29.00;92.10
15121;DHT22;7661;48.904;9.414;2022-09-09T12:41:26;29.20;92.20
15121;DHT22;7661;48.904;9.414;2022-09-09T12:44:03;29.40;89.40
15121;DHT22;7661;48.904;9.414;2022-09-09T12:46:36;29.30;89.00
15121;DHT22;7661;48.904;9.414;2022-09-09T12:49:05;29.20;89.90
15121;DHT22;7661;48.904;9.414;2022-09-09T12:51:33;29.70;88.00
15121;DHT22;7661;48.904;9.414;2022-09-09T12:54:02;28.60;88.00
15121;DHT22;7661;48.904;9.414;2022-09-09T12:56:31;28.00;90.90
15121;DHT22;7661;48.904;9.414;2022-09-09T12:58:59;26.90;87.40
15121;DHT22;7661;48.904;9.414;2022-09-09T13:01:28;25.80;90.50
15121;DHT22;7661;48.904;9.414;2022-09-09T13:03:57;26.20;94.10
15121;DHT22;7661;48.904;9.414;2022-09-09T13:06:24;26.40;89.90
15121;DHT22;7661;48.904;9.414;2022-09-09T13:08:53;25.80;89.00
15121;DHT22;7661;48.904;9.414;2022-09-09T13:11:24;25.50;90.50
15121;DHT22;7661;48.904;9.414;2022-09-09T13:13:56;26.10;90.30
15121;DHT22;7661;48.904;9.414;2022-09-09T13:16:26;27.00;87.90
15121;DHT22;7661;48.904;9.414;2022-09-09T13:18:58;27.50;86.40
15121;DHT22;7661;48.904;9.414;2022-09-09T13:21:33;26.80;86.50
15121;DHT22;7661;48.904;9.414;2022-09-09T13:24:01;26.10;89.60
15121;DHT22;7661;48.904;9.414;2022-09-09T13:26:31;25.40;87.90
15121;DHT22;7661;48.904;9.414;2022-09-09T13:29:14;24.70;89.90
15121;DHT22;7661;48.904;9.414;2022-09-09T13:31:44;24.30;92.10
15121;DHT22;7661;48.904;9.414;2022-09-09T13:34:12;24.20;91.90
15121;DHT22;7661;48.904;9.414;2022-09-09T13:36:40;23.90;92.60
15121;DHT22;7661;48.904;9.414;2022-09-09T13:39:15;23.70;92.60
15121;DHT22;7661;48.904;9.414;2022-09-09T13:41:46;23.40;93.50
15121;DHT22;7661;48.904;9.414;2022-09-09T13:44:19;23.40;96.40
15121;DHT22;7661;48.904;9.414;2022-09-09T13:46:59;23.50;96.60
15121;DHT22;7661;48.904;9.414;2022-09-09T13:49:29;23.40;93.40
15121;DHT22;7661;48.904;9.414;2022-09-09T13:52:09;23.40;94.30
15121;DHT22;7661;48.904;9.414;2022-09-09T13:54:37;23.50;95.20
15121;DHT22;7661;48.904;9.414;2022-09-09T13:57:11;23.70;93.60
15121;DHT22;7661;48.904;9.414;2022-09-09T13:59:40;24.80;93.90
15121;DHT22;7661;48.904;9.414;2022-09-09T14:02:07;25.70;91.80
15121;DHT22;7661;48.904;9.414;2022-09-09T14:04:34;26.40;90.20
15121;DHT22;7661;48.904;9.414;2022-09-09T14:07:01;26.60;90.40
15121;DHT22;7661;48.904;9.414;2022-09-09T14:09:29;27.10;87.70
15121;DHT22;7661;48.904;9.414;2022-09-09T14:11:55;26.60;87.00
15121;DHT22;7661;48.904;9.414;2022-09-09T14:14:24;25.50;85.90
15121;DHT22;7661;48.904;9.414;2022-09-09T14:16:51;24.80;88.30
15121;DHT22;7661;48.904;9.414;2022-09-09T14:19:18;24.30;89.20
15121;DHT22;7661;48.904;9.414;2022-09-09T14:21:45;23.90;90.30
15121;DHT22;7661;48.904;9.414;2022-09-09T14:24:12;23.70;90.90
15121;DHT22;7661;48.904;9.414;2022-09-09T14:26:39;23.50;91.10
15121;DHT22;7661;48.904;9.414;2022-09-09T14:29:06;23.70;92.20
15121;DHT22;7661;48.904;9.414;2022-09-09T14:31:35;24.70;91.40
15121;DHT22;7661;48.904;9.414;2022-09-09T14:34:02;24.80;90.00
15121;DHT22;7661;48.904;9.414;2022-09-09T14:36:29;24.70;90.60
15121;DHT22;7661;48.904;9.414;2022-09-09T14:38:56;24.50;90.30
15121;DHT22;7661;48.904;9.414;2022-09-09T14:41:23;24.30;90.50
15121;DHT22;7661;48.904;9.414;2022-09-09T14:43:51;24.00;89.80
15121;DHT22;7661;48.904;9.414;2022-09-09T14:46:20;24.00;90.20
15121;DHT22;7661;48.904;9.414;2022-09-09T14:48:48;23.90;89.80
15121;DHT22;7661;48.904;9.414;2022-09-09T14:51:17;24.00;90.00
15121;DHT22;7661;48.904;9.414;2022-09-09T14:53:45;24.80;90.50
15121;DHT22;7661;48.904;9.414;2022-09-09T14:56:14;26.10;89.50
15121;DHT22;7661;48.904;9.414;2022-09-09T14:58:42;27.40;83.50
15121;DHT22;7661;48.904;9.414;2022-09-09T15:01:10;27.60;76.50
15121;DHT22;7661;48.904;9.414;2022-09-09T15:03:38;26.50;77.50
15121;DHT22;7661;48.904;9.414;2022-09-09T15:06:09;26.60;77.90
15121;DHT22;7661;48.904;9.414;2022-09-09T15:08:38;26.40;77.30
15121;DHT22;7661;48.904;9.414;2022-09-09T15:11:06;25.60;78.60
15121;DHT22;7661;48.904;9.414;2022-09-09T15:13:33;24.80;80.80
15121;DHT22;7661;48.904;9.414;2022-09-09T15:16:06;24.30;81.60
15121;DHT22;7661;48.904;9.414;2022-09-09T15:18:34;24.00;82.70
15121;DHT22;7661;48.904;9.414;2022-09-09T15:21:01;24.40;82.90
15121;DHT22;7661;48.904;9.414;2022-09-09T15:23:32;24.40;83.30
15121;DHT22;7661;48.904;9.414;2022-09-09T15:26:00;24.20;82.80
15121;DHT22;7661;48.904;9.414;2022-09-09T15:28:27;23.90;84.00
15121;DHT22;7661;48.904;9.414;2022-09-09T15:30:54;23.70;84.10
15121;DHT22;7661;48.904;9.414;2022-09-09T15:33:22;23.50;84.90
15121;DHT22;7661;48.904;9.414;2022-09-09T15:35:49;23.10;84.00
15121;DHT22;7661;48.904;9.414;2022-09-09T15:38:17;22.90;84.50
15121;DHT22;7661;48.904;9.414;2022-09-09T15:40:53;23.00;84.00
15121;DHT22;7661;48.904;9.414;2022-09-09T15:43:20;23.00;85.50
15121;DHT22;7661;48.904;9.414;2022-09-09T15:45:54;23.80;86.00
15121;DHT22;7661;48.904;9.414;2022-09-09T15:48:30;24.50;85.60
15121;DHT22;7661;48.904;9.414;2022-09-09T15:51:02;24.40;86.10
15121;DHT22;7661;48.904;9.414;2022-09-09T15:53:29;24.00;88.00
15121;DHT22;7661;48.904;9.414;2022-09-09T15:55:59;23.50;87.90
15121;DHT22;7661;48.904;9.414;2022-09-09T15:58:29;23.10;89.70
15121;DHT22;7661;48.904;9.414;2022-09-09T16:01:01;22.80;90.50
15121;DHT22;7661;48.904;9.414;2022-09-09T16:03:29;22.50;90.60
15121;DHT22;7661;48.904;9.414;2022-09-09T16:05:57;22.40;90.60
15121;DHT22;7661;48.904;9.414;2022-09-09T16:08:23;22.20;90.80
15121;DHT22;7661;48.904;9.414;2022-09-09T16:10:50;22.10;91.20
15121;DHT22;7661;48.904;9.414;2022-09-09T16:13:18;22.00;91.50
15121;DHT22;7661;48.904;9.414;2022-09-09T16:15:45;21.90;91.60
15121;DHT22;7661;48.904;9.414;2022-09-09T16:18:20;21.80;91.00
15121;DHT22;7661;48.904;9.414;2022-09-09T16:20:53;21.70;91.70